sensor_id;sensor_type;location;lat;lon;timestamp;P1;durP1;ratioP1;P2;durP2;ratioP2
40601;SDS011;26310;50.278;19.032;2023-01-19T00:00:59;19.97;;;11.67;;
40601;SDS011;26310;50.278;19.032;2023-01-19T00:06:05;15.67;;;11.10;;
40601;SDS011;26310;50.278;19.032;2023-01-19T00:11:10;14.27;;;9.23;;
40601;SDS011;26310;50.278;19.032;2023-01-19T00:16:14;20.50;;;9.90;;
40601;SDS011;26310;50.278;19.032;2023-01-19T00:21:21;16.33;;;10.17;;
40601;SDS011;26310;50.278;19.032;2023-01-19T00:26:25;13.50;;;8.77;;
40601;SDS011;26310;50.278;19.032;2023-01-19T05:35:52;29.97;;;17.80;;
40601;SDS011;26310;50.278;19.032;2023-01-19T05:40:56;31.53;;;15.57;;
40601;SDS011;26310;50.278;19.032;2023-01-19T05:45:59;25.03;;;16.00;;
40601;SDS011;26310;50.278;19.032;2023-01-19T05:51:04;22.73;;;15.07;;
40601;SDS011;26310;50.278;19.032;2023-01-19T05:56:09;30.73;;;18.20;;
40601;SDS011;26310;50.278;19.032;2023-01-19T06:01:12;27.33;;;19.67;;
40601;SDS011;26310;50.278;19.032;2023-01-19T06:06:15;32.83;;;18.10;;
40601;SDS011;26310;50.278;19.032;2023-01-19T06:11:18;34.30;;;18.47;;
40601;SDS011;26310;50.278;19.032;2023-01-19T06:16:22;35.80;;;19.47;;
40601;SDS011;26310;50.278;19.032;2023-01-19T06:21:25;32.93;;;17.30;;
40601;SDS011;26310;50.278;19.032;2023-01-19T06:26:28;34.80;;;19.20;;
40601;SDS011;26310;50.278;19.032;2023-01-19T06:31:31;36.83;;;18.90;;
40601;SDS011;26310;50.278;19.032;2023-01-19T06:36:34;32.33;;;19.53;;
40601;SDS011;26310;50.278;19.032;2023-01-19T06:41:37;37.83;;;20.70;;
40601;SDS011;26310;50.278;19.032;2023-01-19T06:46:40;39.77;;;20.30;;
40601;SDS011;26310;50.278;19.032;2023-01-19T06:51:43;35.93;;;19.13;;
40601;SDS011;26310;50.278;19.032;2023-01-19T06:56:46;39.80;;;21.30;;
40601;SDS011;26310;50.278;19.032;2023-01-19T07:01:49;34.83;;;16.87;;
40601;SDS011;26310;50.278;19.032;2023-01-19T07:06:52;33.03;;;18.57;;
40601;SDS011;26310;50.278;19.032;2023-01-19T07:11:55;27.10;;;16.67;;
40601;SDS011;26310;50.278;19.032;2023-01-19T07:16:58;39.67;;;18.53;;
40601;SDS011;26310;50.278;19.032;2023-01-19T07:22:02;38.07;;;20.80;;
40601;SDS011;26310;50.278;19.032;2023-01-19T07:27:05;41.73;;;18.73;;
40601;SDS011;26310;50.278;19.032;2023-01-19T07:32:08;36.37;;;16.90;;
40601;SDS011;26310;50.278;19.032;2023-01-19T07:37:11;31.47;;;17.77;;
40601;SDS011;26310;50.278;19.032;2023-01-19T07:42:14;27.87;;;15.23;;
40601;SDS011;26310;50.278;19.032;2023-01-19T07:47:17;33.97;;;16.30;;
40601;SDS011;26310;50.278;19.032;2023-01-19T07:52:20;24.03;;;14.80;;
40601;SDS011;26310;50.278;19.032;2023-01-19T07:57:23;30.90;;;15.27;;
40601;SDS011;26310;50.278;19.032;2023-01-19T08:02:26;27.57;;;13.57;;
40601;SDS011;26310;50.278;19.032;2023-01-19T08:07:31;25.73;;;14.43;;
40601;SDS011;26310;50.278;19.032;2023-01-19T08:12:35;27.83;;;15.87;;
40601;SDS011;26310;50.278;19.032;2023-01-19T08:17:38;23.10;;;12.10;;
40601;SDS011;26310;50.278;19.032;2023-01-19T08:22:40;22.63;;;12.83;;
40601;SDS011;26310;50.278;19.032;2023-01-19T08:27:43;24.70;;;14.37;;
40601;SDS011;26310;50.278;19.032;2023-01-19T08:32:47;29.27;;;16.07;;
40601;SDS011;26310;50.278;19.032;2023-01-19T08:37:49;25.93;;;16.63;;
40601;SDS011;26310;50.278;19.032;2023-01-19T08:42:56;20.07;;;12.60;;
40601;SDS011;26310;50.278;19.032;2023-01-19T08:48:02;35.73;;;13.47;;
40601;SDS011;26310;50.278;19.032;2023-01-19T08:53:07;25.43;;;14.97;;
40601;SDS011;26310;50.278;19.032;2023-01-19T08:58:10;30.47;;;13.43;;
40601;SDS011;26310;50.278;19.032;2023-01-19T09:03:13;27.17;;;15.03;;
40601;SDS011;26310;50.278;19.032;2023-01-19T09:08:16;30.13;;;14.93;;
40601;SDS011;26310;50.278;19.032;2023-01-19T09:13:19;20.70;;;12.40;;
40601;SDS011;26310;50.278;19.032;2023-01-19T09:18:22;26.20;;;16.03;;
40601;SDS011;26310;50.278;19.032;2023-01-19T09:23:25;27.77;;;14.90;;
40601;SDS011;26310;50.278;19.032;2023-01-19T09:28:28;24.67;;;15.03;;
40601;SDS011;26310;50.278;19.032;2023-01-19T09:33:31;25.83;;;12.80;;
40601;SDS011;26310;50.278;19.032;2023-01-19T09:38:35;25.47;;;14.90;;
40601;SDS011;26310;50.278;19.032;2023-01-19T09:48:55;31.70;;;16.27;;
40601;SDS011;26310;50.278;19.032;2023-01-19T09:59:14;26.33;;;15.27;;
40601;SDS011;26310;50.278;19.032;2023-01-19T10:04:37;23.10;;;14.17;;
40601;SDS011;26310;50.278;19.032;2023-01-19T10:09:49;24.50;;;14.93;;
40601;SDS011;26310;50.278;19.032;2023-01-19T10:15:04;24.57;;;13.77;;
40601;SDS011;26310;50.278;19.032;2023-01-19T10:20:24;29.93;;;15.97;;
40601;SDS011;26310;50.278;19.032;2023-01-19T10:25:29;28.10;;;13.13;;
40601;SDS011;26310;50.278;19.032;2023-01-19T10:30:33;23.87;;;13.97;;
40601;SDS011;26310;50.278;19.032;2023-01-19T10:35:36;25.57;;;13.93;;
40601;SDS011;26310;50.278;19.032;2023-01-19T10:40:54;27.70;;;12.70;;
40601;SDS011;26310;50.278;19.032;2023-01-19T10:51:46;18.03;;;11.03;;
40601;SDS011;26310;50.278;19.032;2023-01-19T10:56:50;21.47;;;10.77;;
40601;SDS011;26310;50.278;19.032;2023-01-19T11:07:20;21.20;;;12.20;;
40601;SDS011;26310;50.278;19.032;2023-01-19T11:12:27;24.70;;;12.60;;
40601;SDS011;26310;50.278;19.032;2023-01-19T11:17:30;29.60;;;12.83;;
40601;SDS011;26310;50.278;19.032;2023-01-19T11:22:33;25.63;;;13.27;;
40601;SDS011;26310;50.278;19.032;2023-01-19T11:27:36;22.63;;;10.37;;
40601;SDS011;26310;50.278;19.032;2023-01-19T11:32:39;19.73;;;10.80;;
40601;SDS011;26310;50.278;19.032;2023-01-19T11:37:42;20.00;;;10.57;;
40601;SDS011;26310;50.278;19.032;2023-01-19T11:42:45;16.43;;;10.23;;
40601;SDS011;26310;50.278;19.032;2023-01-19T11:47:48;27.60;;;12.43;;
40601;SDS011;26310;50.278;19.032;2023-01-19T11:52:55;23.53;;;13.00;;
40601;SDS011;26310;50.278;19.032;2023-01-19T11:58:05;22.30;;;11.27;;
40601;SDS011;26310;50.278;19.032;2023-01-19T12:03:14;21.57;;;10.10;;
40601;SDS011;26310;50.278;19.032;2023-01-19T12:08:29;21.33;;;12.10;;
40601;SDS011;26310;50.278;19.032;2023-01-19T12:13:34;15.80;;;9.47;;
40601;SDS011;26310;50.278;19.032;2023-01-19T12:18:39;20.73;;;12.03;;
40601;SDS011;26310;50.278;19.032;2023-01-19T12:24:03;18.40;;;9.30;;
40601;SDS011;26310;50.278;19.032;2023-01-19T12:29:20;15.87;;;9.40;;
40601;SDS011;26310;50.278;19.032;2023-01-19T12:39:32;12.63;;;8.73;;
40601;SDS011;26310;50.278;19.032;2023-01-19T12:44:36;15.57;;;10.13;;
40601;SDS011;26310;50.278;19.032;2023-01-19T12:54:49;18.60;;;11.30;;
40601;SDS011;26310;50.278;19.032;2023-01-19T13:00:03;15.27;;;10.40;;
40601;SDS011;26310;50.278;19.032;2023-01-19T13:21:30;15.27;;;8.43;;
40601;SDS011;26310;50.278;19.032;2023-01-19T13:31:42;11.37;;;7.93;;
40601;SDS011;26310;50.278;19.032;2023-01-19T13:36:49;14.67;;;9.00;;
40601;SDS011;26310;50.278;19.032;2023-01-19T13:41:54;13.47;;;8.23;;
40601;SDS011;26310;50.278;19.032;2023-01-19T13:46:59;19.23;;;9.20;;
40601;SDS011;26310;50.278;19.032;2023-01-19T13:57:20;16.10;;;8.40;;
40601;SDS011;26310;50.278;19.032;2023-01-19T14:02:44;10.37;;;7.07;;
40601;SDS011;26310;50.278;19.032;2023-01-19T14:28:49;12.13;;;7.93;;
40601;SDS011;26310;50.278;19.032;2023-01-19T14:33:55;13.97;;;7.87;;
40601;SDS011;26310;50.278;19.032;2023-01-19T14:38:59;14.03;;;6.97;;
40601;SDS011;26310;50.278;19.032;2023-01-19T14:44:07;15.77;;;9.77;;
40601;SDS011;26310;50.278;19.032;2023-01-19T14:49:35;12.97;;;7.67;;
40601;SDS011;26310;50.278;19.032;2023-01-19T14:54:41;11.70;;;8.27;;
40601;SDS011;26310;50.278;19.032;2023-01-19T14:59:46;12.50;;;6.80;;
40601;SDS011;26310;50.278;19.032;2023-01-19T15:04:50;13.43;;;9.80;;
40601;SDS011;26310;50.278;19.032;2023-01-19T15:09:56;12.33;;;8.33;;
40601;SDS011;26310;50.278;19.032;2023-01-19T15:15:00;16.17;;;8.80;;
40601;SDS011;26310;50.278;19.032;2023-01-19T15:20:05;11.93;;;7.73;;
40601;SDS011;26310;50.278;19.032;2023-01-19T15:25:15;14.50;;;10.70;;
40601;SDS011;26310;50.278;19.032;2023-01-19T15:30:21;16.97;;;9.67;;
40601;SDS011;26310;50.278;19.032;2023-01-19T15:35:28;15.83;;;9.03;;
40601;SDS011;26310;50.278;19.032;2023-01-19T15:40:31;18.80;;;8.97;;
40601;SDS011;26310;50.278;19.032;2023-01-19T15:45:35;19.13;;;10.03;;
40601;SDS011;26310;50.278;19.032;2023-01-19T15:50:40;21.67;;;10.83;;
40601;SDS011;26310;50.278;19.032;2023-01-19T15:55:47;19.00;;;11.10;;
40601;SDS011;26310;50.278;19.032;2023-01-19T16:00:52;14.87;;;8.97;;
40601;SDS011;26310;50.278;19.032;2023-01-19T16:05:59;16.53;;;10.67;;
40601;SDS011;26310;50.278;19.032;2023-01-19T16:11:06;23.33;;;10.87;;
40601;SDS011;26310;50.278;19.032;2023-01-19T16:16:17;11.67;;;7.63;;
40601;SDS011;26310;50.278;19.032;2023-01-19T16:21:22;17.70;;;10.43;;
40601;SDS011;26310;50.278;19.032;2023-01-19T16:31:33;14.67;;;10.90;;
40601;SDS011;26310;50.278;19.032;2023-01-19T16:36:38;16.27;;;11.10;;
40601;SDS011;26310;50.278;19.032;2023-01-19T16:41:42;18.33;;;10.33;;
40601;SDS011;26310;50.278;19.032;2023-01-19T16:46:46;18.03;;;10.10;;
40601;SDS011;26310;50.278;19.032;2023-01-19T16:51:51;19.30;;;11.70;;
40601;SDS011;26310;50.278;19.032;2023-01-19T16:56:55;22.50;;;11.60;;
40601;SDS011;26310;50.278;19.032;2023-01-19T17:01:59;20.73;;;11.53;;
40601;SDS011;26310;50.278;19.032;2023-01-19T17:07:02;21.13;;;11.63;;
40601;SDS011;26310;50.278;19.032;2023-01-19T17:12:05;25.60;;;13.53;;
40601;SDS011;26310;50.278;19.032;2023-01-19T17:17:10;24.33;;;13.17;;
40601;SDS011;26310;50.278;19.032;2023-01-19T17:22:13;23.30;;;12.37;;
40601;SDS011;26310;50.278;19.032;2023-01-19T17:27:16;18.90;;;11.80;;
40601;SDS011;26310;50.278;19.032;2023-01-19T17:32:18;27.27;;;14.57;;
40601;SDS011;26310;50.278;19.032;2023-01-19T17:37:22;28.50;;;14.57;;
40601;SDS011;26310;50.278;19.032;2023-01-19T17:42:25;33.50;;;14.53;;
40601;SDS011;26310;50.278;19.032;2023-01-19T17:47:28;23.87;;;12.60;;
40601;SDS011;26310;50.278;19.032;2023-01-19T17:52:30;19.93;;;12.53;;
40601;SDS011;26310;50.278;19.032;2023-01-19T17:57:34;29.13;;;12.70;;
40601;SDS011;26310;50.278;19.032;2023-01-19T18:02:37;26.13;;;13.37;;
40601;SDS011;26310;50.278;19.032;2023-01-19T18:07:41;21.20;;;11.73;;
40601;SDS011;26310;50.278;19.032;2023-01-19T18:12:44;22.60;;;10.53;;
40601;SDS011;26310;50.278;19.032;2023-01-19T18:17:47;18.33;;;10.30;;
40601;SDS011;26310;50.278;19.032;2023-01-19T18:22:50;22.43;;;10.57;;
40601;SDS011;26310;50.278;19.032;2023-01-19T18:27:53;18.20;;;9.90;;
40601;SDS011;26310;50.278;19.032;2023-01-19T18:32:56;21.07;;;10.80;;
40601;SDS011;26310;50.278;19.032;2023-01-19T18:37:59;25.10;;;11.97;;
40601;SDS011;26310;50.278;19.032;2023-01-19T18:43:04;14.60;;;10.53;;
40601;SDS011;26310;50.278;19.032;2023-01-19T18:48:08;18.77;;;9.77;;
40601;SDS011;26310;50.278;19.032;2023-01-19T18:53:11;17.73;;;10.97;;
40601;SDS011;26310;50.278;19.032;2023-01-19T18:58:14;14.77;;;9.10;;
40601;SDS011;26310;50.278;19.032;2023-01-19T19:03:17;15.57;;;9.97;;
40601;SDS011;26310;50.278;19.032;2023-01-19T19:08:20;15.13;;;8.47;;
40601;SDS011;26310;50.278;19.032;2023-01-19T19:13:23;20.43;;;11.90;;
40601;SDS011;26310;50.278;19.032;2023-01-19T19:18:26;17.57;;;9.53;;
40601;SDS011;26310;50.278;19.032;2023-01-19T19:23:29;17.23;;;10.20;;
40601;SDS011;26310;50.278;19.032;2023-01-19T19:28:33;19.20;;;8.80;;
40601;SDS011;26310;50.278;19.032;2023-01-19T19:33:37;16.33;;;9.50;;
40601;SDS011;26310;50.278;19.032;2023-01-19T19:38:40;26.13;;;11.23;;
40601;SDS011;26310;50.278;19.032;2023-01-19T19:43:45;14.50;;;8.30;;
40601;SDS011;26310;50.278;19.032;2023-01-19T19:48:48;14.33;;;7.43;;
40601;SDS011;26310;50.278;19.032;2023-01-19T19:53:52;17.27;;;9.00;;
40601;SDS011;26310;50.278;19.032;2023-01-19T19:58:57;13.07;;;8.43;;
40601;SDS011;26310;50.278;19.032;2023-01-19T20:04:05;12.20;;;8.27;;
40601;SDS011;26310;50.278;19.032;2023-01-19T20:09:10;17.63;;;9.13;;
40601;SDS011;26310;50.278;19.032;2023-01-19T20:14:14;17.17;;;9.37;;
40601;SDS011;26310;50.278;19.032;2023-01-19T20:19:17;15.77;;;8.40;;
40601;SDS011;26310;50.278;19.032;2023-01-19T20:24:20;18.90;;;11.63;;
40601;SDS011;26310;50.278;19.032;2023-01-19T20:29:23;23.67;;;11.40;;
40601;SDS011;26310;50.278;19.032;2023-01-19T20:34:28;20.07;;;11.73;;
40601;SDS011;26310;50.278;19.032;2023-01-19T20:39:34;23.77;;;13.27;;
40601;SDS011;26310;50.278;19.032;2023-01-19T20:44:38;30.07;;;13.90;;
40601;SDS011;26310;50.278;19.032;2023-01-19T20:49:41;26.47;;;16.30;;
40601;SDS011;26310;50.278;19.032;2023-01-19T20:54:44;24.90;;;14.33;;
40601;SDS011;26310;50.278;19.032;2023-01-19T20:59:47;30.50;;;16.87;;
40601;SDS011;26310;50.278;19.032;2023-01-19T21:04:49;24.87;;;14.13;;
40601;SDS011;26310;50.278;19.032;2023-01-19T21:09:54;30.50;;;14.30;;
40601;SDS011;26310;50.278;19.032;2023-01-19T21:14:56;39.47;;;14.47;;
40601;SDS011;26310;50.278;19.032;2023-01-19T21:19:59;25.30;;;12.53;;
40601;SDS011;26310;50.278;19.032;2023-01-19T21:25:02;26.87;;;12.97;;
40601;SDS011;26310;50.278;19.032;2023-01-19T21:30:06;30.67;;;14.10;;
40601;SDS011;26310;50.278;19.032;2023-01-19T21:35:09;24.90;;;13.00;;
40601;SDS011;26310;50.278;19.032;2023-01-19T21:40:13;22.30;;;13.67;;
40601;SDS011;26310;50.278;19.032;2023-01-19T21:45:16;21.07;;;11.80;;
40601;SDS011;26310;50.278;19.032;2023-01-19T21:50:19;18.63;;;11.03;;
40601;SDS011;26310;50.278;19.032;2023-01-19T21:55:21;24.50;;;12.30;;
40601;SDS011;26310;50.278;19.032;2023-01-19T22:00:25;20.50;;;10.47;;
40601;SDS011;26310;50.278;19.032;2023-01-19T22:05:32;21.47;;;12.33;;
40601;SDS011;26310;50.278;19.032;2023-01-19T22:10:37;20.17;;;10.93;;
40601;SDS011;26310;50.278;19.032;2023-01-19T22:15:40;22.30;;;11.13;;
40601;SDS011;26310;50.278;19.032;2023-01-19T22:20:43;21.80;;;11.83;;
40601;SDS011;26310;50.278;19.032;2023-01-19T22:25:46;21.57;;;11.23;;
40601;SDS011;26310;50.278;19.032;2023-01-19T22:30:49;19.10;;;10.83;;
40601;SDS011;26310;50.278;19.032;2023-01-19T22:35:52;23.83;;;10.47;;
40601;SDS011;26310;50.278;19.032;2023-01-19T22:40:55;20.97;;;11.30;;
40601;SDS011;26310;50.278;19.032;2023-01-19T22:45:58;22.90;;;9.73;;
40601;SDS011;26310;50.278;19.032;2023-01-19T22:51:01;19.87;;;10.47;;
40601;SDS011;26310;50.278;19.032;2023-01-19T22:56:11;18.47;;;10.57;;
40601;SDS011;26310;50.278;19.032;2023-01-19T23:01:20;15.53;;;9.53;;
40601;SDS011;26310;50.278;19.032;2023-01-19T23:06:34;22.47;;;10.67;;
40601;SDS011;26310;50.278;19.032;2023-01-19T23:11:39;16.80;;;9.40;;
40601;SDS011;26310;50.278;19.032;2023-01-19T23:16:43;17.67;;;9.40;;
40601;SDS011;26310;50.278;19.032;2023-01-19T23:21:51;20.33;;;9.27;;
40601;SDS011;26310;50.278;19.032;2023-01-19T23:26:54;19.47;;;8.80;;
40601;SDS011;26310;50.278;19.032;2023-01-19T23:31:56;16.67;;;9.07;;
40601;SDS011;26310;50.278;19.032;2023-01-19T23:36:59;25.40;;;10.90;;
40601;SDS011;26310;50.278;19.032;2023-01-19T23:42:02;17.93;;;9.87;;
40601;SDS011;26310;50.278;19.032;2023-01-19T23:47:05;20.03;;;11.07;;
40601;SDS011;26310;50.278;19.032;2023-01-19T23:52:08;20.53;;;11.20;;
40601;SDS011;26310;50.278;19.032;2023-01-19T23:57:11;26.10;;;12.13;;
